Ana Sayfa
METAR-TAF:

METAR-TAF

Havaalanları :

Thule, Grönland

Thule Hava Üssü

Enlem: 76-32N, Boylam: 068-42W, yükseklik: 77 m

Güncel hava durumu gözlemi

Rapor saat 08:56 UTC de 10 dakika önce yapıldı.
Rüzgar doğudan 4 kt
Sıcaklık -21°C
Nem 84%
Basınç 1020 hPa
Görüş mesafesi 10 km veya daha fazla
700 ft yükseklikte çok bulutlu

METAR: BGTL 190856Z AUTO 09004KT 9999 OVC007 M21/M23 A3012 RMK AO2 SLP191 T12121234 52009 TSNO $

Saat: 05:06 (09:06 UTC)

Tahmin

Rapor saat 02:00 UTC de 7 saat ve 6 dakika önce yapıldı.
Ayın 19'si saat 02 UTC'den ayın 20'si saat 08 UTC'ye kadar geçerli Tahmin
Rüzgar güneydoğudan 9 kt, doğu ve güney arasında değişken
Görüş mesafesi: 1910 m
18000 ft yükseklikte az bulutlu

TAF: BGTL 190200Z 1902/2008 13009KT 9999 FEW180 QNH2986INS WND 100V170 TXM15/1915Z TNM25/1906Z LAST NO AMDS AFT 1902 NEXT 1910

4.000'den fazla havaalanı için hava durumu gözlemleri ve tahminleri (METAR ve TAF raporları).

Kullanılabilir istasyonlar harita üzerinde sarı ve kırmızı noktalarla gösterilir.

İstasyonun adını görmek için fareyi noktanın üzerinde gezdirin.

Sonrasında hava gözlem ve tahminlerini görmek için tıklayın.

Haritayı değiştirmek için: yaklaştırmak için siyah artı işaretli yeşil düğmeye ve uzaklaştırmak için de eksi işaretli düğmeye hızla tıklayın; bitişik haritalar için yeşil okları kullanın.


METAR-TAF: